x

San Francisco - 18nm West Of San Francisco, Ca (46026) Wave Buoy

10:50pm - Thu 5th Mar 2015 All times are PST. -8 hours from GMT.

  • Sig Wave height 3.9ft
  • Swell Direction
  • Peak Period 15s
  • Average Period 9s
  • Wind
    7mph, 9mph gusts
  • Sea Temp 56°f
  • Air Temp 57°f
  • Sea Pressure 1026mb
  • San Francisco - 18nm West Of San Francisco, Ca
  • San Francisco - 18nm West Of San Francisco, Ca

More Historic Weather Station data

Upgrade to MSW Pro to gain access to the past 30 days of data for over 8000 Wavebouys and Weather Stations around the globe.

Join Pro

Comparision Forecast

View Surf forecast
   
Thu 03/05 10:50pm 4ft 15s 9s 7 9 mph 1026mb 56f 57f
9:50pm 3.5ft 16s 9s 9 11 mph 1026.2mb 56f 58f
8:50pm 3.5ft 16s 8s 11 13 mph 1025.9mb 56f 58f
7:50pm 4ft 16s 10s 11 13 mph 1025.8mb 57f 58f
6:50pm 4ft 16s 10s 9
mph
1025.6mb 58f 58f
5:50pm 4ft 16s 10s 7 9 mph 1025.2mb 58f 59f
4:50pm 3.5ft 15s 9s 4 7 mph 1025.4mb 58f 61f
3:50pm 3.5ft 14s 9s  -  2 mph 1025.5mb 57f 63f
2:50pm 3.5ft 16s 8s 4
mph
1025.7mb 57f 61f
1:50pm 3.5ft 12s 8s 7 9 mph 1025.9mb 57f 60f
12:50pm 3.5ft 16s 7s 9 11 mph 1026.5mb 56f 59f
11:50am 3.5ft 16s 6s 11 13 mph 1027.1mb 56f 58f
10:50am 4ft 16s 6s 13 16 mph 1027.1mb 56f 57f
9:50am 4ft 16s 6s 16 18 mph 1026.9mb 56f 57f
8:50am 4ft 16s 7s 13 16 mph 1026.8mb 56f 57f
7:50am 4ft 16s 7s 13 18 mph 1026mb 56f 56f
6:50am 3.5ft 16s 6s 11 13 mph 1025.6mb 56f 56f
5:50am 4ft 16s 7s 13 16 mph 1024.8mb 55f 56f
4:50am 3.5ft 16s 7s 13 16 mph 1024.2mb 55f 56f
2:50am 4.5ft 16s 9s 9 11 mph 1023.8mb 55f 57f
1:50am 4.5ft 16s 8s 2 4 mph 1024.1mb 55f 56f
12:50am 4ft 16s 8s 2
mph
1023.8mb 55f 56f
Wed 03/04 11:50pm 4.5ft 16s 8s 4 7 mph 1023.5mb 55f 56f
10:50pm 3.5ft 16s 7s 7 9 mph 1023.4mb 55f 56f
9:50pm 3.5ft 16s 7s 9 11 mph 1023.2mb 55f 56f
8:50pm 4ft 16s 8s 9 11 mph 1022.5mb 56f 56f
7:50pm 4.5ft 17s 8s 9 11 mph 1022.1mb 56f 56f
6:50pm 4.5ft 17s 8s 9
mph
1021.8mb 56f 56f
5:50pm 4.5ft 17s 8s 9
mph
1021.6mb 56f 56f
4:50pm 4.5ft 17s 8s 7 9 mph 1021.6mb 57f 56f
3:50pm 4.5ft 17s 8s 9
mph
1021.6mb 57f 56f
2:50pm 4.5ft 17s 7s 9 11 mph 1021.3mb 58f 56f
1:50pm 4.5ft 9s 7s 7
mph
1021.3mb 57f 56f
12:50pm 4.5ft 17s 8s 4
mph
1021.5mb 57f 56f
11:50am 4.5ft 8s 8s 2 4 mph 1021.7mb 56f 56f
10:50am 5ft 17s 8s 4
mph
1021.3mb 56f 55f
9:50am 4.5ft 8s 7s 7 9 mph 1020.9mb 56f 55f
8:50am 5ft 8s 7s 4 7 mph 1020.6mb 55f 55f
7:50am 5.5ft 17s 7s 2 4 mph 1019.8mb 55f 55f
6:50am 6ft 8s 7s  -  2 mph 1018.8mb 55f 53f
5:50am 6ft 8s 7s 2 4 mph 1018.4mb 55f 53f
4:50am 6ft 9s 7s  -  2 mph 1017.9mb 55f 53f
3:50am 5.5ft 9s 7s 4
mph
1017.5mb 55f 53f
2:50am 5.5ft 9s 7s 4 7 mph 1017.4mb 55f 53f
1:50am 5ft 9s 7s 7 9 mph 1017.6mb 55f 54f
12:50am 5ft 9s 7s 9
mph
1017.4mb 55f 53f
Tue 03/03 11:50pm 5ft 19s 7s 9 11 mph 1017.2mb 55f 54f
10:50pm 5.5ft 9s 7s 11 13 mph 1017.1mb 55f 54f
9:50pm 5ft 9s 7s 9 11 mph 1016.7mb 55f 54f
8:50pm 5ft 10s 7s 9 11 mph 1016.7mb 55f 54f
7:50pm 5ft 10s 7s 11 16 mph 1016.4mb 55f 54f
6:50pm 5ft 10s 7s 13 16 mph 1016.2mb 55f 54f
5:50pm 5ft 10s 7s 11 16 mph 1016.1mb 56f 54f
4:50pm 5ft 10s 7s 11 16 mph 1016.1mb 56f 54f
3:50pm 5ft 10s 7s 9 11 mph 1016.5mb 56f 54f
2:50pm 6ft 10s 7s 13 16 mph 1016.8mb 56f 54f
1:50pm 5.5ft 10s 7s 11 13 mph 1017.2mb 56f 54f
12:50pm 5ft 10s 7s 9 11 mph 1017.7mb 56f 54f
11:50am 6ft 9s 7s 7 9 mph 1018.2mb 56f 53f
10:50am 6.5ft 9s 8s 4 7 mph 1018.3mb 55f 53f
9:50am 6.5ft 10s 7s 4
mph
1018.2mb 55f 53f
8:50am 6.5ft 10s 7s 7 9 mph 1018.1mb 55f 54f
7:50am 7ft 10s 7s 4 7 mph 1017.3mb 55f 53f
6:50am 6.5ft 10s 7s 4 7 mph 1016.6mb 55f 53f
5:50am 6ft 10s 7s 7 9 mph 1016.3mb 55f 53f
4:50am 6ft 9s 7s 7 9 mph 1016.2mb 55f 53f
3:50am 6.5ft 10s 7s 4 7 mph 1015.9mb 55f 54f
2:50am 6ft 10s 7s 2 4 mph 1016mb 55f 54f
1:50am 7ft 9s 7s 2 4 mph 1016.2mb 55f 54f
12:50am 7ft 10s 7s  -  2 mph 1016mb 55f 54f
Mon 03/02 11:50pm 6ft 10s 7s 4 7 mph 1015.7mb 55f 55f
10:50pm 6.5ft 10s 7s  -  2 mph 1015.3mb 55f 54f
9:50pm 6ft 9s 7s  -  2 mph 1014.7mb 55f 54f
8:50pm 6ft 10s 7s  -  2 mph 1014.1mb 55f 54f
7:50pm 5.5ft 9s 7s 7
mph
1013.5mb 56f 54f
6:50pm 6ft 9s 7s 4 7 mph 1012.3mb 56f 54f
5:50pm 6.5ft 8s 7s 4 7 mph 1011.4mb 56f 54f
4:50pm 7ft 10s 7s 4 7 mph 1010.9mb 56f 54f
3:50pm 7ft 9s 7s 4 7 mph 1010.3mb 56f 54f
2:50pm 6.5ft 9s 7s 2 4 mph 1009.9mb 56f 54f
1:50pm 6ft 10s 7s 4 7 mph 1009.7mb 56f 54f
12:50pm 6.5ft 9s 7s 4 7 mph 1009.9mb 55f 53f
11:50am 6ft 10s 6s 9 11 mph 1009.9mb 55f 53f
10:50am 6ft 7s 6s 16 18 mph 1009.7mb 55f 53f
9:50am 6.5ft 9s 6s 16 18 mph 1010mb 55f 53f
8:50am 6ft 10s 6s 18 20 mph 1010mb 55f 53f